sensor_id;sensor_type;location;lat;lon;timestamp;P1;durP1;ratioP1;P2;durP2;ratioP2
13580;SDS011;6861;46.170;7.222;2022-09-09T00:02:08;0.70;;;0.50;;
13580;SDS011;6861;46.170;7.222;2022-09-09T00:04:44;4.57;;;0.70;;
13580;SDS011;6861;46.170;7.222;2022-09-09T00:07:21;4.00;;;0.80;;
13580;SDS011;6861;46.170;7.222;2022-09-09T00:09:54;1.20;;;0.77;;
13580;SDS011;6861;46.170;7.222;2022-09-09T00:12:34;1.70;;;0.60;;
13580;SDS011;6861;46.170;7.222;2022-09-09T00:15:11;0.80;;;0.50;;
13580;SDS011;6861;46.170;7.222;2022-09-09T00:17:42;1.20;;;0.65;;
13580;SDS011;6861;46.170;7.222;2022-09-09T00:20:13;1.30;;;0.68;;
13580;SDS011;6861;46.170;7.222;2022-09-09T00:22:45;0.75;;;0.55;;
13580;SDS011;6861;46.170;7.222;2022-09-09T00:25:22;1.30;;;0.70;;
13580;SDS011;6861;46.170;7.222;2022-09-09T00:27:54;1.27;;;0.80;;
13580;SDS011;6861;46.170;7.222;2022-09-09T00:30:24;1.00;;;0.70;;
13580;SDS011;6861;46.170;7.222;2022-09-09T00:32:54;1.20;;;0.70;;
13580;SDS011;6861;46.170;7.222;2022-09-09T00:35:25;3.17;;;0.88;;
13580;SDS011;6861;46.170;7.222;2022-09-09T00:37:56;3.25;;;1.13;;
13580;SDS011;6861;46.170;7.222;2022-09-09T00:40:29;2.85;;;0.80;;
13580;SDS011;6861;46.170;7.222;2022-09-09T00:43:06;2.70;;;0.80;;
13580;SDS011;6861;46.170;7.222;2022-09-09T00:45:49;0.80;;;0.60;;
13580;SDS011;6861;46.170;7.222;2022-09-09T00:48:27;1.52;;;0.70;;
13580;SDS011;6861;46.170;7.222;2022-09-09T00:51:03;1.20;;;0.70;;
13580;SDS011;6861;46.170;7.222;2022-09-09T00:53:39;2.25;;;0.75;;
13580;SDS011;6861;46.170;7.222;2022-09-09T00:56:22;1.98;;;0.90;;
13580;SDS011;6861;46.170;7.222;2022-09-09T00:58:59;1.60;;;0.60;;
13580;SDS011;6861;46.170;7.222;2022-09-09T01:01:35;2.60;;;0.70;;
13580;SDS011;6861;46.170;7.222;2022-09-09T01:04:04;1.48;;;0.80;;
13580;SDS011;6861;46.170;7.222;2022-09-09T01:06:41;2.20;;;0.50;;
13580;SDS011;6861;46.170;7.222;2022-09-09T01:09:14;1.38;;;0.82;;
13580;SDS011;6861;46.170;7.222;2022-09-09T01:11:50;2.72;;;0.95;;
13580;SDS011;6861;46.170;7.222;2022-09-09T01:17:12;1.35;;;0.80;;
13580;SDS011;6861;46.170;7.222;2022-09-09T01:19:50;2.13;;;0.80;;
13580;SDS011;6861;46.170;7.222;2022-09-09T01:22:31;2.03;;;0.68;;
13580;SDS011;6861;46.170;7.222;2022-09-09T01:27:50;1.45;;;0.82;;
13580;SDS011;6861;46.170;7.222;2022-09-09T01:30:19;1.92;;;0.88;;
13580;SDS011;6861;46.170;7.222;2022-09-09T01:32:48;1.25;;;1.00;;
13580;SDS011;6861;46.170;7.222;2022-09-09T01:35:19;2.33;;;0.90;;
13580;SDS011;6861;46.170;7.222;2022-09-09T01:37:55;1.70;;;0.82;;
13580;SDS011;6861;46.170;7.222;2022-09-09T01:40:22;1.30;;;0.80;;
13580;SDS011;6861;46.170;7.222;2022-09-09T01:42:51;1.95;;;0.85;;
13580;SDS011;6861;46.170;7.222;2022-09-09T01:45:20;3.20;;;1.00;;
13580;SDS011;6861;46.170;7.222;2022-09-09T01:47:48;2.75;;;0.82;;
13580;SDS011;6861;46.170;7.222;2022-09-09T01:50:17;1.95;;;0.75;;
13580;SDS011;6861;46.170;7.222;2022-09-09T01:52:44;1.13;;;0.80;;
13580;SDS011;6861;46.170;7.222;2022-09-09T01:55:16;2.28;;;0.75;;
13580;SDS011;6861;46.170;7.222;2022-09-09T01:57:48;2.22;;;0.70;;
13580;SDS011;6861;46.170;7.222;2022-09-09T02:00:23;1.08;;;0.68;;
13580;SDS011;6861;46.170;7.222;2022-09-09T02:02:53;1.05;;;0.70;;
13580;SDS011;6861;46.170;7.222;2022-09-09T02:05:28;1.40;;;0.80;;
13580;SDS011;6861;46.170;7.222;2022-09-09T02:08:03;1.67;;;1.15;;
13580;SDS011;6861;46.170;7.222;2022-09-09T02:10:33;3.08;;;1.02;;
13580;SDS011;6861;46.170;7.222;2022-09-09T02:13:08;1.73;;;0.70;;
13580;SDS011;6861;46.170;7.222;2022-09-09T02:15:39;2.40;;;1.00;;
13580;SDS011;6861;46.170;7.222;2022-09-09T02:18:11;0.95;;;0.68;;
13580;SDS011;6861;46.170;7.222;2022-09-09T02:20:39;1.65;;;0.70;;
13580;SDS011;6861;46.170;7.222;2022-09-09T02:23:09;0.85;;;0.75;;
13580;SDS011;6861;46.170;7.222;2022-09-09T02:25:37;2.85;;;0.75;;
13580;SDS011;6861;46.170;7.222;2022-09-09T02:28:08;2.72;;;0.90;;
13580;SDS011;6861;46.170;7.222;2022-09-09T02:30:37;1.98;;;0.80;;
13580;SDS011;6861;46.170;7.222;2022-09-09T02:33:07;1.40;;;0.80;;
13580;SDS011;6861;46.170;7.222;2022-09-09T02:35:37;2.70;;;1.00;;
13580;SDS011;6861;46.170;7.222;2022-09-09T02:38:06;1.63;;;0.70;;
13580;SDS011;6861;46.170;7.222;2022-09-09T02:40:37;2.40;;;0.90;;
13580;SDS011;6861;46.170;7.222;2022-09-09T02:43:04;1.55;;;1.00;;
13580;SDS011;6861;46.170;7.222;2022-09-09T02:45:35;1.77;;;0.75;;
13580;SDS011;6861;46.170;7.222;2022-09-09T02:48:10;1.55;;;0.80;;
13580;SDS011;6861;46.170;7.222;2022-09-09T02:50:46;1.08;;;0.80;;
13580;SDS011;6861;46.170;7.222;2022-09-09T02:53:22;1.98;;;0.70;;
13580;SDS011;6861;46.170;7.222;2022-09-09T02:55:55;3.97;;;0.90;;
13580;SDS011;6861;46.170;7.222;2022-09-09T02:58:27;0.90;;;0.80;;
13580;SDS011;6861;46.170;7.222;2022-09-09T03:00:56;1.08;;;0.70;;
13580;SDS011;6861;46.170;7.222;2022-09-09T03:03:26;0.90;;;0.70;;
13580;SDS011;6861;46.170;7.222;2022-09-09T03:05:53;1.45;;;0.75;;
13580;SDS011;6861;46.170;7.222;2022-09-09T03:08:20;2.25;;;0.90;;
13580;SDS011;6861;46.170;7.222;2022-09-09T03:10:47;1.23;;;0.63;;
13580;SDS011;6861;46.170;7.222;2022-09-09T03:13:14;1.67;;;1.00;;
13580;SDS011;6861;46.170;7.222;2022-09-09T03:15:44;4.40;;;0.80;;
13580;SDS011;6861;46.170;7.222;2022-09-09T03:18:12;1.42;;;0.73;;
13580;SDS011;6861;46.170;7.222;2022-09-09T03:20:39;1.23;;;0.70;;
13580;SDS011;6861;46.170;7.222;2022-09-09T03:23:07;2.45;;;0.80;;
13580;SDS011;6861;46.170;7.222;2022-09-09T03:25:34;1.42;;;0.70;;
13580;SDS011;6861;46.170;7.222;2022-09-09T03:28:01;2.88;;;0.93;;
13580;SDS011;6861;46.170;7.222;2022-09-09T03:30:28;2.05;;;0.93;;
13580;SDS011;6861;46.170;7.222;2022-09-09T03:32:55;1.75;;;0.80;;
13580;SDS011;6861;46.170;7.222;2022-09-09T03:35:23;2.97;;;0.80;;
13580;SDS011;6861;46.170;7.222;2022-09-09T03:37:50;1.33;;;0.77;;
13580;SDS011;6861;46.170;7.222;2022-09-09T03:40:17;1.20;;;0.80;;
13580;SDS011;6861;46.170;7.222;2022-09-09T03:42:45;2.28;;;0.60;;
13580;SDS011;6861;46.170;7.222;2022-09-09T03:45:13;2.58;;;0.80;;
13580;SDS011;6861;46.170;7.222;2022-09-09T03:47:40;2.15;;;0.70;;
13580;SDS011;6861;46.170;7.222;2022-09-09T03:50:07;2.65;;;0.70;;
13580;SDS011;6861;46.170;7.222;2022-09-09T03:52:38;2.50;;;0.55;;
13580;SDS011;6861;46.170;7.222;2022-09-09T03:55:06;1.80;;;0.90;;
13580;SDS011;6861;46.170;7.222;2022-09-09T03:57:34;3.85;;;0.70;;
13580;SDS011;6861;46.170;7.222;2022-09-09T04:00:01;2.45;;;0.80;;
13580;SDS011;6861;46.170;7.222;2022-09-09T04:02:29;2.55;;;0.98;;
13580;SDS011;6861;46.170;7.222;2022-09-09T04:04:56;1.55;;;0.80;;
13580;SDS011;6861;46.170;7.222;2022-09-09T04:07:22;2.05;;;0.82;;
13580;SDS011;6861;46.170;7.222;2022-09-09T04:09:52;3.80;;;0.68;;
13580;SDS011;6861;46.170;7.222;2022-09-09T04:12:19;2.22;;;0.90;;
13580;SDS011;6861;46.170;7.222;2022-09-09T04:14:47;2.47;;;0.70;;
13580;SDS011;6861;46.170;7.222;2022-09-09T04:17:14;1.77;;;0.80;;
13580;SDS011;6861;46.170;7.222;2022-09-09T04:19:41;5.25;;;0.90;;
13580;SDS011;6861;46.170;7.222;2022-09-09T04:22:08;2.95;;;1.17;;
13580;SDS011;6861;46.170;7.222;2022-09-09T04:24:35;3.22;;;1.00;;
13580;SDS011;6861;46.170;7.222;2022-09-09T04:27:04;5.63;;;1.20;;
13580;SDS011;6861;46.170;7.222;2022-09-09T04:29:30;2.67;;;0.93;;
13580;SDS011;6861;46.170;7.222;2022-09-09T04:31:58;2.05;;;1.10;;
13580;SDS011;6861;46.170;7.222;2022-09-09T04:34:25;2.30;;;1.10;;
13580;SDS011;6861;46.170;7.222;2022-09-09T04:36:52;1.42;;;1.10;;
13580;SDS011;6861;46.170;7.222;2022-09-09T04:39:19;1.60;;;1.17;;
13580;SDS011;6861;46.170;7.222;2022-09-09T04:41:46;3.00;;;1.00;;
13580;SDS011;6861;46.170;7.222;2022-09-09T04:44:14;2.03;;;1.20;;
13580;SDS011;6861;46.170;7.222;2022-09-09T04:46:42;2.92;;;1.25;;
13580;SDS011;6861;46.170;7.222;2022-09-09T04:49:08;1.35;;;1.10;;
13580;SDS011;6861;46.170;7.222;2022-09-09T04:51:35;2.00;;;1.30;;
13580;SDS011;6861;46.170;7.222;2022-09-09T04:54:02;1.60;;;1.05;;
13580;SDS011;6861;46.170;7.222;2022-09-09T04:56:30;3.35;;;1.30;;
13580;SDS011;6861;46.170;7.222;2022-09-09T04:58:57;1.77;;;1.02;;
13580;SDS011;6861;46.170;7.222;2022-09-09T05:01:26;4.03;;;1.10;;
13580;SDS011;6861;46.170;7.222;2022-09-09T05:03:53;2.22;;;1.10;;
13580;SDS011;6861;46.170;7.222;2022-09-09T05:06:20;1.75;;;1.00;;
13580;SDS011;6861;46.170;7.222;2022-09-09T05:08:48;2.58;;;1.10;;
13580;SDS011;6861;46.170;7.222;2022-09-09T05:11:16;2.00;;;1.23;;
13580;SDS011;6861;46.170;7.222;2022-09-09T05:13:44;1.52;;;0.90;;
13580;SDS011;6861;46.170;7.222;2022-09-09T05:16:12;2.63;;;0.98;;
13580;SDS011;6861;46.170;7.222;2022-09-09T05:18:41;2.30;;;1.10;;
13580;SDS011;6861;46.170;7.222;2022-09-09T05:21:09;1.92;;;1.20;;
13580;SDS011;6861;46.170;7.222;2022-09-09T05:23:36;4.00;;;1.38;;
13580;SDS011;6861;46.170;7.222;2022-09-09T05:26:04;2.28;;;1.05;;
13580;SDS011;6861;46.170;7.222;2022-09-09T05:28:33;3.15;;;1.10;;
13580;SDS011;6861;46.170;7.222;2022-09-09T05:31:02;2.33;;;1.30;;
13580;SDS011;6861;46.170;7.222;2022-09-09T05:33:30;1.08;;;0.88;;
13580;SDS011;6861;46.170;7.222;2022-09-09T05:36:00;2.88;;;1.10;;
13580;SDS011;6861;46.170;7.222;2022-09-09T05:38:29;3.63;;;1.35;;
13580;SDS011;6861;46.170;7.222;2022-09-09T05:40:57;1.58;;;1.02;;
13580;SDS011;6861;46.170;7.222;2022-09-09T05:43:25;2.60;;;1.20;;
13580;SDS011;6861;46.170;7.222;2022-09-09T05:45:59;2.20;;;1.30;;
13580;SDS011;6861;46.170;7.222;2022-09-09T05:48:28;4.68;;;1.23;;
13580;SDS011;6861;46.170;7.222;2022-09-09T05:50:56;4.18;;;1.27;;
13580;SDS011;6861;46.170;7.222;2022-09-09T05:53:24;1.42;;;1.15;;
13580;SDS011;6861;46.170;7.222;2022-09-09T05:55:57;2.40;;;0.90;;
13580;SDS011;6861;46.170;7.222;2022-09-09T05:58:25;1.70;;;1.00;;
13580;SDS011;6861;46.170;7.222;2022-09-09T06:00:52;2.55;;;1.20;;
13580;SDS011;6861;46.170;7.222;2022-09-09T06:03:26;2.42;;;1.10;;
13580;SDS011;6861;46.170;7.222;2022-09-09T06:05:56;2.42;;;1.02;;
13580;SDS011;6861;46.170;7.222;2022-09-09T06:08:25;2.15;;;0.90;;
13580;SDS011;6861;46.170;7.222;2022-09-09T06:10:52;1.70;;;1.10;;
13580;SDS011;6861;46.170;7.222;2022-09-09T06:13:19;2.08;;;1.00;;
13580;SDS011;6861;46.170;7.222;2022-09-09T06:15:49;1.85;;;1.10;;
13580;SDS011;6861;46.170;7.222;2022-09-09T06:18:17;2.65;;;1.08;;
13580;SDS011;6861;46.170;7.222;2022-09-09T06:20:52;2.58;;;1.02;;
13580;SDS011;6861;46.170;7.222;2022-09-09T06:23:20;1.95;;;1.00;;
13580;SDS011;6861;46.170;7.222;2022-09-09T06:25:49;4.28;;;1.02;;
13580;SDS011;6861;46.170;7.222;2022-09-09T06:28:16;2.92;;;0.95;;
13580;SDS011;6861;46.170;7.222;2022-09-09T06:30:44;1.20;;;0.90;;
13580;SDS011;6861;46.170;7.222;2022-09-09T06:33:12;3.92;;;1.17;;
13580;SDS011;6861;46.170;7.222;2022-09-09T06:35:39;3.25;;;1.10;;
13580;SDS011;6861;46.170;7.222;2022-09-09T06:38:06;2.45;;;1.00;;
13580;SDS011;6861;46.170;7.222;2022-09-09T06:40:33;2.42;;;1.30;;
13580;SDS011;6861;46.170;7.222;2022-09-09T06:43:02;3.40;;;1.00;;
13580;SDS011;6861;46.170;7.222;2022-09-09T06:45:29;2.55;;;1.48;;
13580;SDS011;6861;46.170;7.222;2022-09-09T06:47:56;5.28;;;1.73;;
13580;SDS011;6861;46.170;7.222;2022-09-09T06:50:23;4.43;;;1.48;;
13580;SDS011;6861;46.170;7.222;2022-09-09T06:52:50;4.05;;;1.52;;
13580;SDS011;6861;46.170;7.222;2022-09-09T06:55:17;5.00;;;1.73;;
13580;SDS011;6861;46.170;7.222;2022-09-09T06:57:44;4.00;;;1.67;;
13580;SDS011;6861;46.170;7.222;2022-09-09T07:00:13;2.42;;;1.70;;
13580;SDS011;6861;46.170;7.222;2022-09-09T07:02:40;3.83;;;1.50;;
13580;SDS011;6861;46.170;7.222;2022-09-09T07:05:07;2.10;;;1.60;;
13580;SDS011;6861;46.170;7.222;2022-09-09T07:07:35;2.88;;;1.73;;
13580;SDS011;6861;46.170;7.222;2022-09-09T07:10:02;5.45;;;1.80;;
13580;SDS011;6861;46.170;7.222;2022-09-09T07:12:30;2.50;;;1.58;;
13580;SDS011;6861;46.170;7.222;2022-09-09T07:14:57;6.70;;;1.60;;
13580;SDS011;6861;46.170;7.222;2022-09-09T07:17:25;3.78;;;1.40;;
13580;SDS011;6861;46.170;7.222;2022-09-09T07:19:54;2.40;;;1.20;;
13580;SDS011;6861;46.170;7.222;2022-09-09T07:22:21;5.70;;;1.45;;
13580;SDS011;6861;46.170;7.222;2022-09-09T07:24:49;4.45;;;1.35;;
13580;SDS011;6861;46.170;7.222;2022-09-09T07:27:16;4.45;;;1.55;;
13580;SDS011;6861;46.170;7.222;2022-09-09T07:29:43;3.50;;;1.50;;
13580;SDS011;6861;46.170;7.222;2022-09-09T07:32:10;5.75;;;1.40;;
13580;SDS011;6861;46.170;7.222;2022-09-09T07:34:38;6.60;;;1.60;;
13580;SDS011;6861;46.170;7.222;2022-09-09T07:37:05;2.42;;;1.50;;
13580;SDS011;6861;46.170;7.222;2022-09-09T07:39:33;7.30;;;1.45;;
13580;SDS011;6861;46.170;7.222;2022-09-09T07:42:00;2.83;;;1.02;;
13580;SDS011;6861;46.170;7.222;2022-09-09T07:44:26;1.23;;;0.90;;
13580;SDS011;6861;46.170;7.222;2022-09-09T07:46:54;2.53;;;1.00;;
13580;SDS011;6861;46.170;7.222;2022-09-09T07:49:21;1.33;;;0.70;;
13580;SDS011;6861;46.170;7.222;2022-09-09T07:51:49;1.25;;;0.80;;
13580;SDS011;6861;46.170;7.222;2022-09-09T07:54:16;3.22;;;0.70;;
13580;SDS011;6861;46.170;7.222;2022-09-09T07:56:46;2.90;;;0.85;;
13580;SDS011;6861;46.170;7.222;2022-09-09T07:59:14;1.75;;;0.60;;
13580;SDS011;6861;46.170;7.222;2022-09-09T08:01:42;1.48;;;0.60;;
13580;SDS011;6861;46.170;7.222;2022-09-09T08:04:11;2.35;;;0.70;;
13580;SDS011;6861;46.170;7.222;2022-09-09T08:06:42;2.92;;;0.73;;
13580;SDS011;6861;46.170;7.222;2022-09-09T08:09:12;1.67;;;0.70;;
13580;SDS011;6861;46.170;7.222;2022-09-09T08:11:39;2.58;;;0.70;;
13580;SDS011;6861;46.170;7.222;2022-09-09T08:14:07;1.30;;;0.70;;
13580;SDS011;6861;46.170;7.222;2022-09-09T08:16:35;1.08;;;0.77;;
13580;SDS011;6861;46.170;7.222;2022-09-09T08:19:04;0.93;;;0.52;;
13580;SDS011;6861;46.170;7.222;2022-09-09T08:21:33;1.27;;;0.68;;
13580;SDS011;6861;46.170;7.222;2022-09-09T08:24:02;6.88;;;1.05;;
13580;SDS011;6861;46.170;7.222;2022-09-09T08:26:33;1.17;;;0.52;;
13580;SDS011;6861;46.170;7.222;2022-09-09T08:29:01;0.68;;;0.52;;
13580;SDS011;6861;46.170;7.222;2022-09-09T08:31:30;1.75;;;0.60;;
13580;SDS011;6861;46.170;7.222;2022-09-09T08:33:59;1.23;;;0.57;;
13580;SDS011;6861;46.170;7.222;2022-09-09T08:36:29;2.28;;;0.80;;
13580;SDS011;6861;46.170;7.222;2022-09-09T08:38:58;0.85;;;0.50;;
13580;SDS011;6861;46.170;7.222;2022-09-09T08:41:42;3.22;;;0.63;;
13580;SDS011;6861;46.170;7.222;2022-09-09T08:44:26;0.98;;;0.60;;
13580;SDS011;6861;46.170;7.222;2022-09-09T08:47:03;0.65;;;0.50;;
13580;SDS011;6861;46.170;7.222;2022-09-09T08:52:36;1.20;;;0.70;;
13580;SDS011;6861;46.170;7.222;2022-09-09T08:55:11;3.30;;;0.82;;
13580;SDS011;6861;46.170;7.222;2022-09-09T08:57:45;1.90;;;0.50;;
13580;SDS011;6861;46.170;7.222;2022-09-09T09:00:12;1.35;;;0.60;;
13580;SDS011;6861;46.170;7.222;2022-09-09T09:02:42;1.25;;;0.60;;
13580;SDS011;6861;46.170;7.222;2022-09-09T09:05:23;1.20;;;0.63;;
13580;SDS011;6861;46.170;7.222;2022-09-09T09:07:59;1.75;;;0.80;;
13580;SDS011;6861;46.170;7.222;2022-09-09T09:10:40;1.60;;;0.60;;
13580;SDS011;6861;46.170;7.222;2022-09-09T09:13:18;1.02;;;0.50;;
13580;SDS011;6861;46.170;7.222;2022-09-09T09:15:49;2.15;;;0.60;;
13580;SDS011;6861;46.170;7.222;2022-09-09T09:18:19;2.15;;;0.77;;
13580;SDS011;6861;46.170;7.222;2022-09-09T09:20:50;2.60;;;0.70;;
13580;SDS011;6861;46.170;7.222;2022-09-09T09:23:23;2.65;;;0.60;;
13580;SDS011;6861;46.170;7.222;2022-09-09T09:25:52;1.88;;;0.60;;
13580;SDS011;6861;46.170;7.222;2022-09-09T09:28:25;0.88;;;0.55;;
13580;SDS011;6861;46.170;7.222;2022-09-09T09:30:55;0.77;;;0.45;;
13580;SDS011;6861;46.170;7.222;2022-09-09T09:33:26;1.33;;;0.68;;
13580;SDS011;6861;46.170;7.222;2022-09-09T09:35:58;0.50;;;0.50;;
13580;SDS011;6861;46.170;7.222;2022-09-09T09:38:26;2.13;;;0.52;;
13580;SDS011;6861;46.170;7.222;2022-09-09T09:40:55;2.58;;;0.50;;
13580;SDS011;6861;46.170;7.222;2022-09-09T09:43:26;1.67;;;0.68;;
13580;SDS011;6861;46.170;7.222;2022-09-09T09:45:55;1.05;;;0.50;;
13580;SDS011;6861;46.170;7.222;2022-09-09T09:48:23;1.20;;;0.50;;
13580;SDS011;6861;46.170;7.222;2022-09-09T09:50:52;1.88;;;0.55;;
13580;SDS011;6861;46.170;7.222;2022-09-09T09:53:23;1.85;;;0.57;;
13580;SDS011;6861;46.170;7.222;2022-09-09T09:55:56;1.77;;;0.43;;
13580;SDS011;6861;46.170;7.222;2022-09-09T09:58:27;1.13;;;0.60;;
13580;SDS011;6861;46.170;7.222;2022-09-09T10:00:59;2.22;;;0.65;;
13580;SDS011;6861;46.170;7.222;2022-09-09T10:03:27;1.02;;;0.52;;
13580;SDS011;6861;46.170;7.222;2022-09-09T10:05:56;1.27;;;0.70;;
13580;SDS011;6861;46.170;7.222;2022-09-09T10:08:23;2.45;;;0.80;;
13580;SDS011;6861;46.170;7.222;2022-09-09T10:11:03;1.25;;;0.60;;
13580;SDS011;6861;46.170;7.222;2022-09-09T10:13:49;1.50;;;0.60;;
13580;SDS011;6861;46.170;7.222;2022-09-09T10:16:31;0.88;;;0.55;;
13580;SDS011;6861;46.170;7.222;2022-09-09T10:19:09;2.67;;;0.55;;
13580;SDS011;6861;46.170;7.222;2022-09-09T10:21:57;1.15;;;0.60;;
13580;SDS011;6861;46.170;7.222;2022-09-09T10:24:36;1.42;;;0.57;;
13580;SDS011;6861;46.170;7.222;2022-09-09T10:27:16;1.00;;;0.60;;
13580;SDS011;6861;46.170;7.222;2022-09-09T10:29:57;1.88;;;0.60;;
13580;SDS011;6861;46.170;7.222;2022-09-09T10:32:37;1.98;;;0.70;;
13580;SDS011;6861;46.170;7.222;2022-09-09T10:35:12;1.00;;;0.43;;
13580;SDS011;6861;46.170;7.222;2022-09-09T10:37:53;0.90;;;0.38;;
13580;SDS011;6861;46.170;7.222;2022-09-09T10:40:39;0.80;;;0.60;;
13580;SDS011;6861;46.170;7.222;2022-09-09T10:43:18;3.20;;;0.50;;
13580;SDS011;6861;46.170;7.222;2022-09-09T10:45:57;1.70;;;0.50;;
13580;SDS011;6861;46.170;7.222;2022-09-09T10:48:31;1.13;;;0.50;;
13580;SDS011;6861;46.170;7.222;2022-09-09T10:51:23;3.80;;;0.73;;
13580;SDS011;6861;46.170;7.222;2022-09-09T10:54:07;1.15;;;0.50;;
13580;SDS011;6861;46.170;7.222;2022-09-09T10:56:44;0.50;;;0.35;;
13580;SDS011;6861;46.170;7.222;2022-09-09T10:59:20;1.10;;;0.50;;
13580;SDS011;6861;46.170;7.222;2022-09-09T11:01:55;1.63;;;0.55;;
13580;SDS011;6861;46.170;7.222;2022-09-09T11:04:26;1.10;;;0.60;;
13580;SDS011;6861;46.170;7.222;2022-09-09T11:06:59;2.28;;;0.50;;
13580;SDS011;6861;46.170;7.222;2022-09-09T11:09:32;1.15;;;0.50;;
13580;SDS011;6861;46.170;7.222;2022-09-09T11:12:04;0.80;;;0.40;;
13580;SDS011;6861;46.170;7.222;2022-09-09T11:14:39;0.50;;;0.30;;
13580;SDS011;6861;46.170;7.222;2022-09-09T11:17:12;0.73;;;0.40;;
13580;SDS011;6861;46.170;7.222;2022-09-09T11:19:43;0.50;;;0.40;;
13580;SDS011;6861;46.170;7.222;2022-09-09T11:22:15;0.30;;;0.30;;
13580;SDS011;6861;46.170;7.222;2022-09-09T11:24:49;1.38;;;0.47;;
13580;SDS011;6861;46.170;7.222;2022-09-09T11:27:20;1.35;;;0.30;;
13580;SDS011;6861;46.170;7.222;2022-09-09T11:30:02;0.80;;;0.40;;
13580;SDS011;6861;46.170;7.222;2022-09-09T11:32:47;1.38;;;0.40;;
13580;SDS011;6861;46.170;7.222;2022-09-09T11:35:30;0.65;;;0.43;;
13580;SDS011;6861;46.170;7.222;2022-09-09T11:40:55;1.55;;;0.50;;
13580;SDS011;6861;46.170;7.222;2022-09-09T11:43:27;1.45;;;0.50;;
13580;SDS011;6861;46.170;7.222;2022-09-09T11:45:58;2.50;;;0.40;;
13580;SDS011;6861;46.170;7.222;2022-09-09T11:48:31;0.82;;;0.52;;
13580;SDS011;6861;46.170;7.222;2022-09-09T11:51:05;2.67;;;0.57;;
13580;SDS011;6861;46.170;7.222;2022-09-09T11:53:34;1.52;;;0.40;;
13580;SDS011;6861;46.170;7.222;2022-09-09T11:56:03;0.47;;;0.30;;
13580;SDS011;6861;46.170;7.222;2022-09-09T11:58:42;0.50;;;0.40;;
13580;SDS011;6861;46.170;7.222;2022-09-09T12:04:12;1.02;;;0.50;;
13580;SDS011;6861;46.170;7.222;2022-09-09T12:06:45;0.60;;;0.40;;
13580;SDS011;6861;46.170;7.222;2022-09-09T12:09:18;0.90;;;0.38;;
13580;SDS011;6861;46.170;7.222;2022-09-09T12:11:49;2.08;;;0.40;;
13580;SDS011;6861;46.170;7.222;2022-09-09T12:14:20;1.30;;;0.40;;
13580;SDS011;6861;46.170;7.222;2022-09-09T12:17:08;1.20;;;0.50;;
13580;SDS011;6861;46.170;7.222;2022-09-09T12:19:37;1.15;;;0.43;;
13580;SDS011;6861;46.170;7.222;2022-09-09T12:22:05;1.10;;;0.40;;
13580;SDS011;6861;46.170;7.222;2022-09-09T12:24:41;1.67;;;0.63;;
13580;SDS011;6861;46.170;7.222;2022-09-09T12:27:15;0.98;;;0.60;;
13580;SDS011;6861;46.170;7.222;2022-09-09T12:29:48;0.63;;;0.30;;
13580;SDS011;6861;46.170;7.222;2022-09-09T12:32:22;0.47;;;0.40;;
13580;SDS011;6861;46.170;7.222;2022-09-09T12:34:54;0.60;;;0.43;;
13580;SDS011;6861;46.170;7.222;2022-09-09T12:37:25;0.95;;;0.40;;
13580;SDS011;6861;46.170;7.222;2022-09-09T12:39:56;1.15;;;0.50;;
13580;SDS011;6861;46.170;7.222;2022-09-09T12:42:25;0.60;;;0.40;;
13580;SDS011;6861;46.170;7.222;2022-09-09T12:44:53;1.05;;;0.40;;
13580;SDS011;6861;46.170;7.222;2022-09-09T12:47:23;1.67;;;0.57;;
13580;SDS011;6861;46.170;7.222;2022-09-09T12:49:56;0.93;;;0.35;;
13580;SDS011;6861;46.170;7.222;2022-09-09T12:52:26;1.52;;;0.55;;
13580;SDS011;6861;46.170;7.222;2022-09-09T12:54:58;3.13;;;0.60;;
13580;SDS011;6861;46.170;7.222;2022-09-09T12:57:29;1.35;;;0.60;;
13580;SDS011;6861;46.170;7.222;2022-09-09T13:00:06;6.55;;;0.70;;
13580;SDS011;6861;46.170;7.222;2022-09-09T13:02:45;0.82;;;0.50;;
13580;SDS011;6861;46.170;7.222;2022-09-09T13:05:17;0.80;;;0.50;;
13580;SDS011;6861;46.170;7.222;2022-09-09T13:07:46;0.75;;;0.43;;
13580;SDS011;6861;46.170;7.222;2022-09-09T13:10:14;1.05;;;0.55;;
13580;SDS011;6861;46.170;7.222;2022-09-09T13:12:46;0.50;;;0.40;;
13580;SDS011;6861;46.170;7.222;2022-09-09T13:15:16;1.08;;;0.45;;
13580;SDS011;6861;46.170;7.222;2022-09-09T13:17:51;1.85;;;0.50;;
13580;SDS011;6861;46.170;7.222;2022-09-09T13:20:22;1.35;;;0.70;;
13580;SDS011;6861;46.170;7.222;2022-09-09T13:22:50;2.05;;;0.45;;
13580;SDS011;6861;46.170;7.222;2022-09-09T13:25:20;2.53;;;0.50;;
13580;SDS011;6861;46.170;7.222;2022-09-09T13:27:52;0.70;;;0.45;;
13580;SDS011;6861;46.170;7.222;2022-09-09T13:30:25;0.95;;;0.52;;
13580;SDS011;6861;46.170;7.222;2022-09-09T13:33:05;0.82;;;0.45;;
13580;SDS011;6861;46.170;7.222;2022-09-09T13:35:47;0.55;;;0.50;;
13580;SDS011;6861;46.170;7.222;2022-09-09T13:38:17;0.50;;;0.32;;
13580;SDS011;6861;46.170;7.222;2022-09-09T13:40:57;1.90;;;0.47;;
13580;SDS011;6861;46.170;7.222;2022-09-09T13:43:27;0.85;;;0.50;;
13580;SDS011;6861;46.170;7.222;2022-09-09T13:45:56;0.80;;;0.47;;
13580;SDS011;6861;46.170;7.222;2022-09-09T13:48:25;1.55;;;0.60;;
13580;SDS011;6861;46.170;7.222;2022-09-09T13:54:02;1.25;;;0.70;;
13580;SDS011;6861;46.170;7.222;2022-09-09T13:56:31;1.00;;;0.50;;
13580;SDS011;6861;46.170;7.222;2022-09-09T13:58:58;1.55;;;0.40;;
13580;SDS011;6861;46.170;7.222;2022-09-09T14:01:25;1.02;;;0.50;;
13580;SDS011;6861;46.170;7.222;2022-09-09T14:03:52;0.93;;;0.60;;
13580;SDS011;6861;46.170;7.222;2022-09-09T14:06:19;1.38;;;0.50;;
13580;SDS011;6861;46.170;7.222;2022-09-09T14:08:49;0.80;;;0.60;;
13580;SDS011;6861;46.170;7.222;2022-09-09T14:11:16;1.73;;;0.60;;
13580;SDS011;6861;46.170;7.222;2022-09-09T14:13:44;2.35;;;0.55;;
13580;SDS011;6861;46.170;7.222;2022-09-09T14:16:11;0.93;;;0.60;;
13580;SDS011;6861;46.170;7.222;2022-09-09T14:18:38;0.80;;;0.50;;
13580;SDS011;6861;46.170;7.222;2022-09-09T14:21:06;0.88;;;0.60;;
13580;SDS011;6861;46.170;7.222;2022-09-09T14:23:34;0.82;;;0.45;;
13580;SDS011;6861;46.170;7.222;2022-09-09T14:26:02;1.17;;;0.40;;
13580;SDS011;6861;46.170;7.222;2022-09-09T14:28:29;2.20;;;0.40;;
13580;SDS011;6861;46.170;7.222;2022-09-09T14:30:58;0.88;;;0.43;;
13580;SDS011;6861;46.170;7.222;2022-09-09T14:33:26;3.13;;;0.50;;
13580;SDS011;6861;46.170;7.222;2022-09-09T14:35:55;0.60;;;0.40;;
13580;SDS011;6861;46.170;7.222;2022-09-09T14:38:22;1.75;;;0.43;;
13580;SDS011;6861;46.170;7.222;2022-09-09T14:40:49;0.75;;;0.40;;
13580;SDS011;6861;46.170;7.222;2022-09-09T14:43:18;1.55;;;0.47;;
13580;SDS011;6861;46.170;7.222;2022-09-09T14:45:45;0.60;;;0.50;;
13580;SDS011;6861;46.170;7.222;2022-09-09T14:48:13;1.35;;;0.43;;
13580;SDS011;6861;46.170;7.222;2022-09-09T14:50:40;1.02;;;0.60;;
13580;SDS011;6861;46.170;7.222;2022-09-09T14:53:07;0.88;;;0.43;;
13580;SDS011;6861;46.170;7.222;2022-09-09T14:55:34;1.80;;;0.50;;
13580;SDS011;6861;46.170;7.222;2022-09-09T14:58:01;1.30;;;0.60;;
13580;SDS011;6861;46.170;7.222;2022-09-09T15:00:29;1.13;;;0.50;;
13580;SDS011;6861;46.170;7.222;2022-09-09T15:02:56;3.78;;;0.60;;
13580;SDS011;6861;46.170;7.222;2022-09-09T15:05:23;0.98;;;0.63;;
13580;SDS011;6861;46.170;7.222;2022-09-09T15:07:50;1.05;;;0.50;;
13580;SDS011;6861;46.170;7.222;2022-09-09T15:10:17;1.40;;;0.50;;
13580;SDS011;6861;46.170;7.222;2022-09-09T15:12:44;4.20;;;0.60;;
13580;SDS011;6861;46.170;7.222;2022-09-09T15:15:11;0.80;;;0.40;;
13580;SDS011;6861;46.170;7.222;2022-09-09T15:17:40;0.70;;;0.50;;
13580;SDS011;6861;46.170;7.222;2022-09-09T15:20:07;1.52;;;0.47;;
13580;SDS011;6861;46.170;7.222;2022-09-09T15:22:35;0.85;;;0.50;;
13580;SDS011;6861;46.170;7.222;2022-09-09T15:25:03;1.38;;;0.47;;
13580;SDS011;6861;46.170;7.222;2022-09-09T15:27:32;1.92;;;0.60;;
13580;SDS011;6861;46.170;7.222;2022-09-09T15:29:59;0.55;;;0.50;;
13580;SDS011;6861;46.170;7.222;2022-09-09T15:32:27;1.67;;;0.57;;
13580;SDS011;6861;46.170;7.222;2022-09-09T15:34:56;1.35;;;0.50;;
13580;SDS011;6861;46.170;7.222;2022-09-09T15:37:23;0.52;;;0.40;;
13580;SDS011;6861;46.170;7.222;2022-09-09T15:39:50;3.20;;;0.50;;